createdAt,value
2023-01-29T00:04:04.071Z,-2.68
2023-01-29T00:09:07.707Z,-2.46
2023-01-29T00:14:11.296Z,-2.40
2023-01-29T00:19:15.978Z,-2.17
2023-01-29T00:24:19.578Z,-2.48
2023-01-29T00:29:23.581Z,-2.41
2023-01-29T00:34:28.165Z,-2.32
2023-01-29T00:39:47.360Z,-2.53
2023-01-29T00:45:00.090Z,-2.78
2023-01-29T00:50:06.752Z,-3.09
2023-01-29T00:55:11.544Z,-3.18
2023-01-29T01:00:18.076Z,-3.19
2023-01-29T01:05:23.676Z,-3.34
2023-01-29T01:10:28.642Z,-3.61
2023-01-29T01:15:37.044Z,-3.95
2023-01-29T01:20:41.655Z,-4.06
2023-01-29T01:25:44.778Z,-4.18
2023-01-29T01:30:48.203Z,-4.36
2023-01-29T01:35:52.799Z,-4.38
2023-01-29T01:40:55.966Z,-4.49
2023-01-29T01:45:59.188Z,-4.73
2023-01-29T01:51:06.950Z,-4.94
2023-01-29T01:56:13.909Z,-5.14
2023-01-29T02:01:18.932Z,-5.23
2023-01-29T02:06:40.979Z,-5.49
2023-01-29T02:11:44.327Z,-5.59
2023-01-29T02:16:47.832Z,-5.66
2023-01-29T02:22:13.283Z,-6.04
2023-01-29T02:27:19.634Z,-6.07
2023-01-29T02:32:32.448Z,-6.03
2023-01-29T02:37:41.165Z,-6.33
2023-01-29T02:42:52.282Z,-6.25
2023-01-29T02:48:00.737Z,-6.44
2023-01-29T02:53:09.318Z,-6.25
2023-01-29T02:58:16.253Z,-6.52
2023-01-29T03:03:26.300Z,-6.73
2023-01-29T03:08:43.299Z,-6.76
2023-01-29T03:13:52.314Z,-6.71
2023-01-29T03:19:02.378Z,-6.81
2023-01-29T03:24:29.014Z,-7.00
2023-01-29T03:29:52.879Z,-7.25
2023-01-29T03:35:06.435Z,-7.06
2023-01-29T03:40:12.157Z,-7.31
2023-01-29T03:45:21.964Z,-7.11
2023-01-29T03:50:37.911Z,-7.31
2023-01-29T03:55:46.816Z,-7.35
2023-01-29T04:00:55.689Z,-7.33
2023-01-29T04:06:11.543Z,-7.47
2023-01-29T04:11:28.520Z,-7.51
2023-01-29T04:16:37.473Z,-7.53
2023-01-29T04:22:07.258Z,-7.55
2023-01-29T04:27:27.406Z,-7.55
2023-01-29T04:32:42.262Z,-7.92
2023-01-29T04:37:57.816Z,-7.88
2023-01-29T04:43:06.940Z,-7.95
2023-01-29T04:48:21.202Z,-8.02
2023-01-29T04:53:35.494Z,-8.10
2023-01-29T04:58:43.686Z,-8.17
2023-01-29T05:03:51.266Z,-8.42
2023-01-29T05:08:57.589Z,-8.36
2023-01-29T05:14:04.309Z,-8.39
2023-01-29T05:19:07.533Z,-8.42
2023-01-29T05:24:15.458Z,-8.68
2023-01-29T05:29:18.688Z,-8.47
2023-01-29T05:34:22.048Z,-8.39
2023-01-29T05:39:26.893Z,-8.52
2023-01-29T05:44:30.337Z,-8.32
2023-01-29T05:49:33.660Z,-8.61
2023-01-29T05:54:38.459Z,-8.57
2023-01-29T05:59:41.957Z,-8.42
2023-01-29T06:04:45.227Z,-8.32
2023-01-29T06:09:49.893Z,-8.32
2023-01-29T06:14:53.226Z,-8.29
2023-01-29T06:19:56.396Z,-8.31
2023-01-29T06:25:01.279Z,-8.09
2023-01-29T06:30:04.621Z,-8.12
2023-01-29T06:35:09.943Z,-8.27
2023-01-29T06:40:15.454Z,-8.28
2023-01-29T06:45:19.200Z,-7.80
2023-01-29T06:50:22.543Z,-7.65
2023-01-29T06:55:27.680Z,-7.78
2023-01-29T07:00:31.676Z,-7.76
2023-01-29T07:05:35.878Z,-7.91
2023-01-29T07:10:41.539Z,-8.01
2023-01-29T07:15:45.337Z,-7.80
2023-01-29T07:20:49.070Z,-7.76
2023-01-29T07:25:53.666Z,-7.67
2023-01-29T07:30:58.270Z,-7.34
2023-01-29T07:36:01.662Z,-7.32
2023-01-29T07:41:06.645Z,-6.71
2023-01-29T07:46:10.445Z,-6.51
2023-01-29T07:51:13.882Z,-6.36
2023-01-29T07:56:18.650Z,-6.25
2023-01-29T08:01:22.195Z,-6.35
2023-01-29T08:06:25.556Z,-6.28
2023-01-29T08:11:30.171Z,-5.97
2023-01-29T08:16:33.485Z,-5.52
2023-01-29T08:21:37.030Z,-5.37
2023-01-29T08:26:42.050Z,-4.91
2023-01-29T08:31:45.723Z,-4.82
2023-01-29T08:36:48.991Z,-4.39
2023-01-29T08:41:53.571Z,-4.08
2023-01-29T08:46:59.878Z,-4.09
2023-01-29T08:52:04.005Z,-3.88
2023-01-29T08:57:08.924Z,-3.32
2023-01-29T09:02:12.892Z,-3.15
2023-01-29T09:07:17.295Z,-3.24
2023-01-29T09:12:22.170Z,-2.48
2023-01-29T09:17:26.484Z,-3.20
2023-01-29T09:22:30.296Z,-3.12
2023-01-29T09:27:35.164Z,-1.98
2023-01-29T09:32:54.662Z,-1.58
2023-01-29T09:37:58.329Z,-1.93
2023-01-29T09:43:09.415Z,-1.76
2023-01-29T09:48:15.017Z,-1.00
2023-01-29T09:53:21.502Z,-1.09
2023-01-29T09:58:31.862Z,-0.49
2023-01-29T10:03:50.617Z,-0.12
2023-01-29T10:09:35.262Z,0.20
2023-01-29T10:14:49.549Z,0.28
2023-01-29T10:20:11.502Z,0.58
2023-01-29T10:25:17.219Z,0.76
2023-01-29T10:30:32.377Z,1.23
2023-01-29T10:35:40.945Z,1.50
2023-01-29T10:40:51.934Z,1.66
2023-01-29T10:46:08.907Z,1.37
2023-01-29T10:51:23.760Z,1.81
2023-01-29T10:56:52.692Z,2.10
2023-01-29T11:02:00.375Z,2.20
2023-01-29T11:07:03.897Z,2.48
2023-01-29T11:12:13.467Z,2.30
2023-01-29T11:17:19.847Z,2.70
2023-01-29T11:22:24.815Z,2.34
2023-01-29T11:27:30.372Z,2.95
2023-01-29T11:32:36.404Z,2.55
2023-01-29T11:37:41.794Z,2.24
2023-01-29T11:42:45.533Z,2.01
2023-01-29T11:47:54.141Z,1.91
2023-01-29T11:53:00.211Z,1.55
2023-01-29T11:58:05.918Z,1.62
2023-01-29T12:03:23.900Z,1.64
2023-01-29T12:08:33.072Z,1.06
2023-01-29T12:13:36.981Z,1.94
2023-01-29T12:18:45.571Z,1.91
2023-01-29T12:23:55.898Z,2.43
2023-01-29T12:29:14.583Z,1.94
2023-01-29T12:34:25.979Z,1.89
2023-01-29T12:39:29.914Z,1.83
2023-01-29T12:44:42.333Z,2.06
2023-01-29T12:49:52.989Z,1.91
2023-01-29T12:54:59.419Z,1.77
2023-01-29T13:00:08.596Z,2.05
2023-01-29T13:05:21.929Z,2.41
2023-01-29T13:10:30.882Z,2.39
2023-01-29T13:15:38.477Z,2.72
2023-01-29T13:20:46.018Z,2.04
2023-01-29T13:25:52.856Z,2.01
2023-01-29T13:31:15.482Z,2.16
2023-01-29T13:36:27.665Z,2.03
2023-01-29T13:41:38.731Z,2.29
2023-01-29T13:46:43.690Z,1.59
2023-01-29T13:51:48.681Z,1.72
2023-01-29T13:57:00.500Z,1.14
2023-01-29T14:02:19.800Z,1.68
2023-01-29T14:07:51.798Z,1.90
2023-01-29T14:12:56.695Z,1.55
2023-01-29T14:18:15.802Z,1.47
2023-01-29T14:23:40.285Z,1.36
2023-01-29T14:28:44.689Z,1.49
2023-01-29T14:33:48.098Z,1.46
2023-01-29T14:38:55.198Z,1.43
2023-01-29T14:44:32.044Z,0.55
2023-01-29T14:49:54.372Z,0.37
2023-01-29T14:55:04.094Z,0.13
2023-01-29T15:00:17.509Z,0.26
2023-01-29T15:05:22.874Z,0.45
2023-01-29T15:10:44.207Z,-0.10
2023-01-29T15:15:53.084Z,-0.07
2023-01-29T15:21:05.617Z,0.09
2023-01-29T15:26:16.192Z,0.16
2023-01-29T15:31:19.951Z,-0.08
2023-01-29T15:36:25.614Z,-0.24
2023-01-29T15:41:30.674Z,-0.36
2023-01-29T15:46:36.978Z,-0.59
2023-01-29T15:51:40.649Z,-0.67
2023-01-29T15:56:49.008Z,-1.03
2023-01-29T16:01:52.443Z,-1.41
2023-01-29T16:06:57.514Z,-1.39
2023-01-29T16:12:02.652Z,-1.84
2023-01-29T16:17:23.578Z,-2.09
2023-01-29T16:22:31.224Z,-2.39
2023-01-29T16:27:36.859Z,-2.61
2023-01-29T16:32:41.552Z,-2.62
2023-01-29T16:37:49.793Z,-2.92
2023-01-29T16:43:31.291Z,-3.07
2023-01-29T16:48:37.730Z,-3.23
2023-01-29T16:53:41.261Z,-3.36
2023-01-29T16:58:51.799Z,-3.42
2023-01-29T17:04:01.450Z,-3.48
2023-01-29T17:09:06.687Z,-3.72
2023-01-29T17:14:19.494Z,-3.87
2023-01-29T17:19:25.262Z,-4.12
2023-01-29T17:24:28.701Z,-4.14
2023-01-29T17:29:33.686Z,-4.55
2023-01-29T17:34:37.519Z,-4.65
2023-01-29T17:39:41.231Z,-5.06
2023-01-29T17:44:46.060Z,-4.83
2023-01-29T17:49:49.307Z,-4.82
2023-01-29T17:54:52.592Z,-4.91
2023-01-29T17:59:57.188Z,-4.98
2023-01-29T18:05:00.541Z,-5.22
2023-01-29T18:10:03.733Z,-5.31
2023-01-29T18:15:10.113Z,-5.76
2023-01-29T18:20:22.656Z,-5.61
2023-01-29T18:25:26.137Z,-5.53
2023-01-29T18:30:31.741Z,-5.81
2023-01-29T18:35:35.356Z,-5.89
2023-01-29T18:40:38.763Z,-6.12
2023-01-29T18:45:44.233Z,-6.07
2023-01-29T18:50:47.479Z,-6.06
2023-01-29T18:55:58.997Z,-5.95
2023-01-29T19:01:07.209Z,-6.38
2023-01-29T19:06:12.623Z,-6.10
2023-01-29T19:11:16.383Z,-6.27
2023-01-29T19:16:22.430Z,-6.28
2023-01-29T19:21:27.122Z,-6.41
2023-01-29T19:26:33.987Z,-6.66
2023-01-29T19:31:39.343Z,-6.52
2023-01-29T19:36:43.536Z,-6.46
2023-01-29T19:41:48.006Z,-6.22
2023-01-29T19:46:53.723Z,-5.92
2023-01-29T19:51:59.159Z,-5.79
2023-01-29T19:57:03.016Z,-5.81
2023-01-29T20:02:07.857Z,-5.56
2023-01-29T20:07:11.419Z,-5.67
2023-01-29T20:12:14.580Z,-5.61
2023-01-29T20:17:19.717Z,-5.68
2023-01-29T20:22:23.238Z,-5.48
2023-01-29T20:27:26.341Z,-5.45
2023-01-29T20:32:32.970Z,-5.37
2023-01-29T20:37:36.301Z,-5.33
2023-01-29T20:42:39.435Z,-5.04
2023-01-29T20:47:44.263Z,-4.85
2023-01-29T20:52:47.434Z,-5.11
2023-01-29T20:58:05.887Z,-4.63
2023-01-29T21:03:12.328Z,-4.48
2023-01-29T21:08:15.885Z,-4.17
2023-01-29T21:13:20.108Z,-3.95
2023-01-29T21:18:27.545Z,-3.73
2023-01-29T21:23:32.015Z,-3.67
2023-01-29T21:28:36.645Z,-3.53
2023-01-29T21:33:41.779Z,-3.40
2023-01-29T21:38:45.467Z,-3.04
2023-01-29T21:43:49.010Z,-3.24
2023-01-29T21:48:53.544Z,-3.05
2023-01-29T21:53:56.893Z,-2.97
2023-01-29T21:59:02.482Z,-2.89
2023-01-29T22:04:08.426Z,-2.91
2023-01-29T22:09:11.665Z,-2.71
2023-01-29T22:14:18.288Z,-2.49
2023-01-29T22:19:23.581Z,-2.69
2023-01-29T22:24:26.800Z,-2.69
2023-01-29T22:29:30.090Z,-2.59
2023-01-29T22:34:34.925Z,-2.64
2023-01-29T22:39:38.246Z,-2.72
2023-01-29T22:44:41.595Z,-2.61
2023-01-29T22:49:49.215Z,-2.62
2023-01-29T22:54:52.513Z,-2.52
2023-01-29T22:59:55.673Z,-2.44
2023-01-29T23:05:00.183Z,-2.22
2023-01-29T23:10:03.653Z,-2.17
2023-01-29T23:15:07.790Z,-1.97
2023-01-29T23:20:13.685Z,-1.92
2023-01-29T23:25:17.295Z,-2.04
2023-01-29T23:30:20.703Z,-1.83
2023-01-29T23:35:25.442Z,-1.82
2023-01-29T23:40:28.562Z,-2.06
2023-01-29T23:45:31.651Z,-1.69
2023-01-29T23:50:36.087Z,-1.75
2023-01-29T23:55:39.397Z,-1.86
